Time;durP1;ratioP1;P1;durP2;ratioP2;P2;SDS_P1;SDS_P2;PMS_P1;PMS_P2;Temp;Humidity;BMP_temperature;BMP_pressure;BME280_temperature;BME280_humidity;BME280_pressure;Samples;Min_cycle;Max_cycle;Signal;HPM_P1;HPM_P2
2022/05/20 00:02:24;;;;;;;;;;;11.40;99.90;;;;;;5094651;28;19955;-75
2022/05/20 00:04:51;;;;;;;;;;;11.30;99.90;;;;;;5094730;28;19951;-75
2022/05/20 00:07:18;;;;;;;;;;;11.40;99.90;;;;;;5094593;28;19970;-75
2022/05/20 00:09:44;;;;;;;;;;;11.40;99.90;;;;;;5094434;28;20397;-75
2022/05/20 00:12:11;;;;;;;;;;;11.50;99.90;;;;;;5094768;28;19915;-75
2022/05/20 00:14:38;;;;;;;;;;;11.50;99.90;;;;;;5094558;28;19908;-74
2022/05/20 00:17:05;;;;;;;;;;;11.60;99.90;;;;;;5094426;28;19908;-74
2022/05/20 00:19:32;;;;;;;;;;;11.50;99.90;;;;;;5094419;28;20266;-75
2022/05/20 00:21:59;;;;;;;;;;;11.50;99.90;;;;;;5094490;28;19959;-74
2022/05/20 00:24:26;;;;;;;;;;;11.40;99.90;;;;;;5094448;28;19908;-75
2022/05/20 00:26:52;;;;;;;;;;;11.50;99.90;;;;;;5094432;28;19912;-75
2022/05/20 00:29:19;;;;;;;;;;;11.50;99.90;;;;;;5094273;28;19942;-75
2022/05/20 00:31:46;;;;;;;;;;;11.60;99.90;;;;;;5094058;28;19923;-75
2022/05/20 00:34:12;;;;;;;;;;;11.70;99.90;;;;;;5094003;28;20333;-74
2022/05/20 00:36:39;;;;;;;;;;;11.70;99.90;;;;;;5093816;28;19953;-74
2022/05/20 00:39:06;;;;;;;;;;;11.70;99.90;;;;;;5092039;28;20351;-75
2022/05/20 00:41:33;;;;;;;;;;;11.70;99.90;;;;;;5082111;28;19931;-74
2022/05/20 00:43:59;;;;;;;;;;;11.80;99.90;;;;;;5093336;28;19912;-74
2022/05/20 00:46:27;;;;;;;;;;;11.80;99.90;;;;;;5093255;28;20031;-74
2022/05/20 00:48:58;;;;;;;;;;;11.80;99.90;;;;;;5106717;28;20379;-74
2022/05/20 00:51:28;;;;;;;;;;;11.80;99.90;;;;;;5114186;28;19920;-74
2022/05/20 00:54:17;;;;;;;;;;;11.80;99.90;;;;;;5114142;28;20377;-74
2022/05/20 00:56:54;;;;;;;;;;;11.70;99.90;;;;;;5106026;28;19914;-74
2022/05/20 00:59:23;;;;;;;;;;;11.70;99.90;;;;;;5114160;28;20072;-74
2022/05/20 01:01:52;;;;;;;;;;;11.80;99.90;;;;;;5113770;28;19911;-75
2022/05/20 01:04:20;;;;;;;;;;;11.90;99.90;;;;;;5113883;28;20273;-75
2022/05/20 01:06:47;;;;;;;;;;;12.00;99.90;;;;;;5113995;28;20004;-75
2022/05/20 01:09:14;;;;;;;;;;;12.00;99.90;;;;;;5113874;28;19923;-75
2022/05/20 01:11:40;;;;;;;;;;;12.10;99.90;;;;;;5113788;28;20312;-75
2022/05/20 01:14:10;;;;;;;;;;;12.20;99.90;;;;;;5113984;28;19933;-74
2022/05/20 01:16:37;;;;;;;;;;;12.20;99.90;;;;;;5113993;28;20438;-74
2022/05/20 01:19:07;;;;;;;;;;;12.20;99.90;;;;;;5113772;28;19908;-74
2022/05/20 01:21:34;;;;;;;;;;;12.10;99.90;;;;;;5113548;28;19943;-74
2022/05/20 01:24:01;;;;;;;;;;;12.10;99.90;;;;;;5113863;28;20002;-75
2022/05/20 01:26:28;;;;;;;;;;;12.00;99.90;;;;;;5113924;28;19954;-75
2022/05/20 01:28:55;;;;;;;;;;;12.00;99.90;;;;;;5113642;28;19920;-75
2022/05/20 01:31:21;;;;;;;;;;;12.00;99.90;;;;;;5113815;28;20148;-75
2022/05/20 01:33:49;;;;;;;;;;;12.00;99.90;;;;;;5113408;28;19931;-75
2022/05/20 01:36:20;;;;;;;;;;;12.10;99.90;;;;;;5113662;28;19915;-76
2022/05/20 01:38:47;;;;;;;;;;;12.10;99.90;;;;;;5113717;28;19907;-75
2022/05/20 01:41:32;;;;;;;;;;;12.10;99.90;;;;;;5113552;28;19915;-75
2022/05/20 01:44:04;;;;;;;;;;;12.10;99.90;;;;;;5113666;28;19961;-75
2022/05/20 01:46:33;;;;;;;;;;;12.20;99.90;;;;;;5113696;28;19908;-74
2022/05/20 01:49:06;;;;;;;;;;;12.20;99.90;;;;;;5117495;28;19916;-75
2022/05/20 01:51:37;;;;;;;;;;;12.20;99.90;;;;;;5117472;28;19963;-75
2022/05/20 01:54:10;;;;;;;;;;;12.30;99.90;;;;;;5117757;28;19907;-75
2022/05/20 01:56:41;;;;;;;;;;;12.40;99.90;;;;;;5117475;28;19907;-76
2022/05/20 01:59:26;;;;;;;;;;;12.40;99.90;;;;;;5116101;28;19915;-76
2022/05/20 02:02:02;;;;;;;;;;;12.40;99.90;;;;;;5117249;28;19916;-76
2022/05/20 02:04:44;;;;;;;;;;;12.40;99.90;;;;;;5117374;28;19914;-76
2022/05/20 02:07:22;;;;;;;;;;;12.40;99.90;;;;;;5117468;28;19908;-75
2022/05/20 02:10:02;;;;;;;;;;;12.50;99.90;;;;;;5117011;28;19915;-75
2022/05/20 02:12:31;;;;;;;;;;;12.60;99.90;;;;;;5117462;28;19912;-75
2022/05/20 02:15:10;;;;;;;;;;;12.50;99.90;;;;;;5117204;28;20281;-74
2022/05/20 02:17:38;;;;;;;;;;;12.50;99.90;;;;;;5116882;28;19911;-75
2022/05/20 02:20:06;;;;;;;;;;;12.50;99.90;;;;;;5117188;28;19908;-75
2022/05/20 02:22:35;;;;;;;;;;;12.50;99.90;;;;;;5117123;28;19930;-74
2022/05/20 02:25:03;;;;;;;;;;;12.60;99.90;;;;;;5117261;28;20380;-74
2022/05/20 02:27:32;;;;;;;;;;;12.70;99.90;;;;;;5117044;28;19908;-74
2022/05/20 02:30:08;;;;;;;;;;;12.70;99.90;;;;;;5116785;28;20025;-76
2022/05/20 02:32:54;;;;;;;;;;;12.70;99.90;;;;;;5116626;28;19931;-76
2022/05/20 02:35:21;;;;;;;;;;;12.80;99.90;;;;;;5116254;28;20282;-75
2022/05/20 02:37:48;;;;;;;;;;;12.90;99.90;;;;;;5116579;28;20044;-76
2022/05/20 02:40:16;;;;;;;;;;;12.90;99.90;;;;;;5116746;28;19998;-74
2022/05/20 02:42:43;;;;;;;;;;;12.90;99.90;;;;;;5116848;28;19911;-74
2022/05/20 02:45:09;;;;;;;;;;;13.00;99.90;;;;;;5116681;28;19908;-75
2022/05/20 02:47:36;;;;;;;;;;;13.00;99.90;;;;;;5117203;28;20274;-74
2022/05/20 02:50:06;;;;;;;;;;;13.00;99.90;;;;;;5114227;28;19943;-75
2022/05/20 02:52:33;;;;;;;;;;;13.00;99.90;;;;;;5094220;28;19912;-76
2022/05/20 02:55:00;;;;;;;;;;;13.00;99.90;;;;;;5095507;28;19908;-75
2022/05/20 02:57:27;;;;;;;;;;;13.00;99.90;;;;;;5095352;28;19923;-75
2022/05/20 03:05:23;;;;;;;;;;;13.10;99.90;;;;;;5116342;28;19914;-74
2022/05/20 03:07:49;;;;;;;;;;;13.10;99.90;;;;;;5115950;28;19912;-74
2022/05/20 03:10:16;;;;;;;;;;;13.10;99.90;;;;;;5115983;28;20366;-75
2022/05/20 03:12:43;;;;;;;;;;;13.10;99.90;;;;;;5116246;28;20358;-74
2022/05/20 03:15:11;;;;;;;;;;;13.10;99.90;;;;;;5116119;28;19907;-75
2022/05/20 03:17:38;;;;;;;;;;;13.20;99.90;;;;;;5115700;28;20377;-74
2022/05/20 03:20:06;;;;;;;;;;;13.20;99.90;;;;;;5115999;28;19960;-74
2022/05/20 03:22:33;;;;;;;;;;;13.20;99.90;;;;;;5115831;28;19907;-75
2022/05/20 03:25:00;;;;;;;;;;;13.20;99.90;;;;;;5115953;28;19911;-75
2022/05/20 03:27:27;;;;;;;;;;;13.20;99.90;;;;;;5115989;28;19907;-75
2022/05/20 03:29:54;;;;;;;;;;;13.20;99.90;;;;;;5115521;28;19923;-75
2022/05/20 03:32:21;;;;;;;;;;;13.10;99.90;;;;;;5115708;28;19907;-76
2022/05/20 03:34:47;;;;;;;;;;;13.10;99.90;;;;;;5115822;28;19911;-75
2022/05/20 03:37:14;;;;;;;;;;;13.10;99.90;;;;;;5115680;28;19908;-76
2022/05/20 03:39:41;;;;;;;;;;;13.10;99.90;;;;;;5115529;28;19946;-75
2022/05/20 03:42:08;;;;;;;;;;;13.10;99.90;;;;;;5115709;28;20273;-75
2022/05/20 03:44:34;;;;;;;;;;;13.20;99.90;;;;;;5115664;28;19915;-74
2022/05/20 03:47:02;;;;;;;;;;;13.30;99.90;;;;;;5115577;28;20015;-75
2022/05/20 03:49:29;;;;;;;;;;;13.30;99.90;;;;;;5115532;28;19922;-75
2022/05/20 03:51:56;;;;;;;;;;;13.30;99.90;;;;;;5115254;28;19949;-75
2022/05/20 03:54:24;;;;;;;;;;;13.40;99.90;;;;;;5115395;28;19990;-75
2022/05/20 03:56:50;;;;;;;;;;;13.40;99.90;;;;;;5115414;28;19957;-75
2022/05/20 03:59:17;;;;;;;;;;;13.50;99.90;;;;;;5115249;28;20290;-74
2022/05/20 04:01:59;;;;;;;;;;;13.60;99.90;;;;;;5115009;28;19912;-75
2022/05/20 04:04:31;;;;;;;;;;;13.60;99.90;;;;;;5115218;28;19908;-75
2022/05/20 04:06:59;;;;;;;;;;;13.60;99.90;;;;;;5115083;28;19915;-75
2022/05/20 04:09:26;;;;;;;;;;;13.60;99.90;;;;;;5114763;28;19920;-75
2022/05/20 04:11:54;;;;;;;;;;;13.60;99.90;;;;;;5114599;28;20376;-75
2022/05/20 04:14:21;;;;;;;;;;;13.60;99.90;;;;;;5114875;28;19912;-75
2022/05/20 04:16:48;;;;;;;;;;;13.70;99.90;;;;;;5114645;28;19908;-75
2022/05/20 04:19:15;;;;;;;;;;;13.70;99.90;;;;;;5115010;28;19908;-75
2022/05/20 04:21:42;;;;;;;;;;;13.70;99.90;;;;;;5114626;28;19915;-75
2022/05/20 04:24:08;;;;;;;;;;;13.80;99.90;;;;;;5114714;28;19908;-75
2022/05/20 04:26:35;;;;;;;;;;;13.70;99.90;;;;;;5114741;28;20369;-75
2022/05/20 04:29:02;;;;;;;;;;;13.80;99.90;;;;;;5113309;28;19919;-75
2022/05/20 04:31:28;;;;;;;;;;;13.80;99.90;;;;;;5114471;28;19991;-75
2022/05/20 04:33:55;;;;;;;;;;;13.80;99.90;;;;;;5114506;28;19908;-75
2022/05/20 04:36:22;;;;;;;;;;;13.80;99.90;;;;;;5114302;28;19961;-75
2022/05/20 04:38:48;;;;;;;;;;;13.80;99.90;;;;;;5114426;28;19908;-76
2022/05/20 04:46:59;;;;;;;;;;;13.80;99.90;;;;;;5114280;28;19953;-75
2022/05/20 04:49:27;;;;;;;;;;;13.80;99.90;;;;;;5114251;28;19922;-75
2022/05/20 04:51:54;;;;;;;;;;;13.80;99.90;;;;;;5113912;28;20010;-76
2022/05/20 04:57:07;;;;;;;;;;;13.80;99.90;;;;;;5114106;28;20341;-75
2022/05/20 04:59:35;;;;;;;;;;;13.80;99.90;;;;;;5114028;28;19908;-75
2022/05/20 05:02:02;;;;;;;;;;;13.90;99.90;;;;;;5113896;28;19912;-76
2022/05/20 05:04:29;;;;;;;;;;;13.90;99.90;;;;;;5113764;28;20346;-76
2022/05/20 05:06:55;;;;;;;;;;;13.90;99.90;;;;;;5114081;28;20277;-75
2022/05/20 05:09:22;;;;;;;;;;;13.90;99.90;;;;;;5113780;28;19921;-75
2022/05/20 05:11:49;;;;;;;;;;;13.90;99.90;;;;;;5113432;28;19908;-75
2022/05/20 05:14:16;;;;;;;;;;;13.90;99.90;;;;;;5113803;28;20006;-76
2022/05/20 05:16:43;;;;;;;;;;;14.00;99.90;;;;;;5113460;28;19994;-75
2022/05/20 05:19:10;;;;;;;;;;;14.00;99.90;;;;;;5113586;28;19908;-76
2022/05/20 05:21:37;;;;;;;;;;;14.00;99.90;;;;;;5112711;28;19968;-76
2022/05/20 05:24:04;;;;;;;;;;;14.10;99.90;;;;;;5113454;28;19908;-76
2022/05/20 05:26:32;;;;;;;;;;;14.10;99.90;;;;;;5113680;28;20346;-76
2022/05/20 05:29:00;;;;;;;;;;;14.10;99.90;;;;;;5113399;28;19912;-76
2022/05/20 05:31:27;;;;;;;;;;;14.10;99.90;;;;;;5113400;28;19907;-77
2022/05/20 05:33:54;;;;;;;;;;;14.10;99.90;;;;;;5113266;28;19915;-76
2022/05/20 05:36:21;;;;;;;;;;;14.10;99.90;;;;;;5113545;28;19947;-76
2022/05/20 05:38:48;;;;;;;;;;;14.10;99.90;;;;;;5112302;28;19908;-76
2022/05/20 05:41:17;;;;;;;;;;;14.10;99.90;;;;;;5113260;28;19987;-77
2022/05/20 05:43:44;;;;;;;;;;;14.10;99.90;;;;;;5113053;28;19908;-76
2022/05/20 05:46:11;;;;;;;;;;;14.20;99.90;;;;;;5113276;28;19908;-76
2022/05/20 05:48:37;;;;;;;;;;;14.20;99.90;;;;;;5113580;28;19953;-76
2022/05/20 05:51:05;;;;;;;;;;;14.20;99.90;;;;;;5113383;28;19974;-76
2022/05/20 05:53:31;;;;;;;;;;;14.20;99.90;;;;;;5113155;28;19957;-76
2022/05/20 05:55:59;;;;;;;;;;;14.20;99.90;;;;;;5112064;28;19908;-76
2022/05/20 05:58:27;;;;;;;;;;;14.20;99.90;;;;;;5113394;28;19908;-76
2022/05/20 06:00:54;;;;;;;;;;;14.20;99.90;;;;;;5113253;28;19915;-76
2022/05/20 06:03:21;;;;;;;;;;;14.20;99.90;;;;;;5113483;28;19915;-76
2022/05/20 06:05:48;;;;;;;;;;;14.10;99.90;;;;;;5113247;28;20518;-76
2022/05/20 06:08:15;;;;;;;;;;;14.10;99.90;;;;;;5113180;28;20380;-76
2022/05/20 06:10:42;;;;;;;;;;;14.10;99.90;;;;;;5113266;28;20006;-76
2022/05/20 06:13:09;;;;;;;;;;;14.20;99.90;;;;;;5112027;28;20251;-76
2022/05/20 06:15:37;;;;;;;;;;;14.20;99.90;;;;;;5112906;28;19912;-76
2022/05/20 06:18:03;;;;;;;;;;;14.10;99.90;;;;;;5113276;28;19908;-76
2022/05/20 06:20:31;;;;;;;;;;;14.10;99.90;;;;;;5113194;28;19942;-75
2022/05/20 06:22:57;;;;;;;;;;;14.10;99.90;;;;;;5113041;28;19908;-75
2022/05/20 06:25:24;;;;;;;;;;;14.10;99.90;;;;;;5113155;28;19915;-75
2022/05/20 06:27:51;;;;;;;;;;;14.00;99.90;;;;;;5112892;28;19950;-76
2022/05/20 06:30:19;;;;;;;;;;;14.00;99.90;;;;;;5112980;28;19976;-76
2022/05/20 06:32:46;;;;;;;;;;;14.00;99.90;;;;;;5113151;28;19953;-76
2022/05/20 06:40:46;;;;;;;;;;;13.90;99.90;;;;;;5117066;28;20330;-76
2022/05/20 06:43:14;;;;;;;;;;;13.90;99.90;;;;;;5116790;28;19915;-75
2022/05/20 06:45:41;;;;;;;;;;;13.90;99.90;;;;;;5114965;28;19908;-75
2022/05/20 06:48:08;;;;;;;;;;;13.90;99.90;;;;;;5116597;28;19908;-75
2022/05/20 06:50:38;;;;;;;;;;;13.90;99.90;;;;;;5116174;28;19920;-75
2022/05/20 06:53:06;;;;;;;;;;;13.80;99.90;;;;;;5114139;28;20385;-75
2022/05/20 06:55:33;;;;;;;;;;;13.90;99.90;;;;;;5114202;28;19912;-75
2022/05/20 06:58:00;;;;;;;;;;;13.80;99.90;;;;;;5114383;28;19908;-75
2022/05/20 07:00:27;;;;;;;;;;;13.90;99.90;;;;;;5114170;28;20413;-75
2022/05/20 07:02:54;;;;;;;;;;;13.90;99.90;;;;;;5114177;28;19907;-75
2022/05/20 07:05:21;;;;;;;;;;;13.90;99.90;;;;;;5113748;28;19915;-75
2022/05/20 07:07:48;;;;;;;;;;;13.90;99.90;;;;;;5113929;28;20014;-75
2022/05/20 07:10:15;;;;;;;;;;;13.90;99.90;;;;;;5114145;28;20301;-75
2022/05/20 07:12:42;;;;;;;;;;;13.90;99.90;;;;;;5113845;28;20419;-75
2022/05/20 07:15:09;;;;;;;;;;;13.80;99.90;;;;;;5113809;27;20327;-74
2022/05/20 07:17:36;;;;;;;;;;;13.80;99.90;;;;;;5113471;28;19960;-75
2022/05/20 07:20:07;;;;;;;;;;;13.90;99.90;;;;;;5113833;28;19915;-75
2022/05/20 07:22:33;;;;;;;;;;;13.80;99.90;;;;;;5113927;28;19908;-75
2022/05/20 07:25:00;;;;;;;;;;;13.90;99.90;;;;;;5113918;28;20431;-74
2022/05/20 07:27:26;;;;;;;;;;;13.90;99.90;;;;;;5113853;28;19912;-74
2022/05/20 07:29:53;;;;;;;;;;;14.00;99.90;;;;;;5113242;28;19920;-75
2022/05/20 07:32:20;;;;;;;;;;;14.00;99.90;;;;;;5113568;28;20028;-74
2022/05/20 07:34:48;;;;;;;;;;;14.10;99.90;;;;;;5113516;28;20385;-74
2022/05/20 07:37:14;;;;;;;;;;;14.00;99.90;;;;;;5113590;28;19912;-74
2022/05/20 07:39:41;;;;;;;;;;;14.00;99.90;;;;;;5113123;28;19924;-75
2022/05/20 07:42:08;;;;;;;;;;;14.00;99.90;;;;;;5113342;28;19914;-75
2022/05/20 07:44:36;;;;;;;;;;;13.90;99.90;;;;;;5112269;28;19908;-75
2022/05/20 07:47:03;;;;;;;;;;;13.90;99.90;;;;;;5112984;28;20016;-75
2022/05/20 07:49:30;;;;;;;;;;;13.90;99.90;;;;;;5113053;28;20533;-75
2022/05/20 07:51:57;;;;;;;;;;;13.90;99.90;;;;;;5113061;28;19977;-75
2022/05/20 07:54:27;;;;;;;;;;;13.90;99.90;;;;;;5113216;28;19911;-75
2022/05/20 07:56:57;;;;;;;;;;;13.90;99.90;;;;;;5112615;28;19958;-75
2022/05/20 07:59:47;;;;;;;;;;;13.90;99.90;;;;;;5113030;28;19912;-75
2022/05/20 08:02:15;;;;;;;;;;;13.90;99.90;;;;;;5104565;28;20273;-75
2022/05/20 08:04:53;;;;;;;;;;;13.90;99.90;;;;;;5113000;28;19997;-75
2022/05/20 08:07:21;;;;;;;;;;;13.90;99.90;;;;;;5113054;28;19990;-76
2022/05/20 08:09:48;;;;;;;;;;;13.90;99.90;;;;;;5112178;28;19916;-76
2022/05/20 08:12:14;;;;;;;;;;;13.90;99.90;;;;;;5112897;28;19908;-74
2022/05/20 08:14:41;;;;;;;;;;;13.90;99.90;;;;;;5112711;28;20353;-76
2022/05/20 08:17:08;;;;;;;;;;;13.90;99.90;;;;;;5112873;28;19992;-75
2022/05/20 08:19:35;;;;;;;;;;;13.90;99.90;;;;;;5112450;28;19908;-75
2022/05/20 08:22:01;;;;;;;;;;;13.80;99.90;;;;;;5112703;28;19931;-75
2022/05/20 08:24:29;;;;;;;;;;;13.90;99.90;;;;;;5112202;28;19914;-75
2022/05/20 08:26:57;;;;;;;;;;;13.80;99.90;;;;;;5112504;28;19930;-74
2022/05/20 08:29:23;;;;;;;;;;;13.80;99.90;;;;;;5112304;28;19916;-75
2022/05/20 08:31:50;;;;;;;;;;;13.80;99.90;;;;;;5112211;28;19912;-74
2022/05/20 08:34:17;;;;;;;;;;;13.80;99.90;;;;;;5112344;28;19954;-74
2022/05/20 08:36:43;;;;;;;;;;;13.80;99.90;;;;;;5112082;28;19995;-76
2022/05/20 08:39:12;;;;;;;;;;;13.80;99.90;;;;;;5112313;28;19954;-75
2022/05/20 08:41:41;;;;;;;;;;;13.70;99.90;;;;;;5111970;28;19939;-74
2022/05/20 08:44:12;;;;;;;;;;;13.80;99.90;;;;;;5112137;28;19994;-74
2022/05/20 08:46:39;;;;;;;;;;;13.70;99.90;;;;;;5112025;28;20027;-74
2022/05/20 08:49:08;;;;;;;;;;;13.70;99.90;;;;;;5111652;28;19926;-74
2022/05/20 08:51:35;;;;;;;;;;;13.70;99.90;;;;;;5111612;28;19981;-76
2022/05/20 08:54:03;;;;;;;;;;;13.70;99.90;;;;;;5112031;28;19930;-75
2022/05/20 08:56:30;;;;;;;;;;;13.70;99.90;;;;;;5111839;28;19914;-75
2022/05/20 08:59:02;;;;;;;;;;;13.70;99.90;;;;;;5112070;28;19915;-75
2022/05/20 09:01:34;;;;;;;;;;;13.70;99.90;;;;;;5111557;28;19908;-75
2022/05/20 09:04:01;;;;;;;;;;;13.60;99.90;;;;;;5111832;28;19912;-74
2022/05/20 09:06:29;;;;;;;;;;;13.60;99.90;;;;;;5113268;28;19908;-74
2022/05/20 09:09:07;;;;;;;;;;;13.60;99.90;;;;;;5113759;28;20003;-75
2022/05/20 09:11:34;;;;;;;;;;;13.50;99.90;;;;;;5113672;28;20010;-75
2022/05/20 09:17:11;;;;;;;;;;;13.50;99.90;;;;;;5113739;28;19930;-76
2022/05/20 09:19:38;;;;;;;;;;;13.50;99.90;;;;;;5113624;28;19914;-75
2022/05/20 09:22:12;;;;;;;;;;;13.60;99.90;;;;;;5113819;28;19922;-75
2022/05/20 09:24:43;;;;;;;;;;;13.50;99.90;;;;;;5113824;28;19908;-76
2022/05/20 09:27:11;;;;;;;;;;;13.60;99.90;;;;;;5113634;28;19907;-75
2022/05/20 09:29:40;;;;;;;;;;;13.60;99.90;;;;;;5113151;28;19937;-74
2022/05/20 09:32:15;;;;;;;;;;;13.50;99.90;;;;;;5113867;28;19907;-76
2022/05/20 09:34:43;;;;;;;;;;;13.50;99.90;;;;;;5113664;28;19908;-74
2022/05/20 09:37:14;;;;;;;;;;;13.50;99.90;;;;;;5113689;28;19908;-75
2022/05/20 09:39:42;;;;;;;;;;;13.40;99.90;;;;;;5113348;28;20346;-75
2022/05/20 09:42:17;;;;;;;;;;;13.40;99.90;;;;;;5113676;28;20030;-76
2022/05/20 09:44:45;;;;;;;;;;;13.40;99.90;;;;;;5087654;28;19909;-76
2022/05/20 09:47:12;;;;;;;;;;;13.40;99.90;;;;;;5072540;28;19909;-76
2022/05/20 09:49:52;;;;;;;;;;;13.40;99.90;;;;;;5072794;28;20404;-76
2022/05/20 09:52:23;;;;;;;;;;;13.40;99.90;;;;;;5052970;28;19920;-75
2022/05/20 09:54:57;;;;;;;;;;;13.40;99.90;;;;;;5052938;28;19909;-73
2022/05/20 09:57:28;;;;;;;;;;;13.40;99.90;;;;;;5052913;28;19912;-75
2022/05/20 09:59:57;;;;;;;;;;;13.40;99.90;;;;;;5052185;28;19908;-74
2022/05/20 10:02:33;;;;;;;;;;;13.40;99.90;;;;;;5052095;28;19944;-74
2022/05/20 10:05:03;;;;;;;;;;;13.40;99.90;;;;;;5052091;28;20223;-75
2022/05/20 10:07:35;;;;;;;;;;;13.40;99.90;;;;;;5052567;28;19959;-75
2022/05/20 10:10:15;;;;;;;;;;;13.40;99.90;;;;;;5056057;28;19916;-75
2022/05/20 10:12:44;;;;;;;;;;;13.30;99.90;;;;;;5056622;28;19909;-75
2022/05/20 10:15:19;;;;;;;;;;;13.30;99.90;;;;;;5056258;28;19916;-73
2022/05/20 10:18:00;;;;;;;;;;;13.30;99.90;;;;;;5056338;28;19909;-74
2022/05/20 10:20:34;;;;;;;;;;;13.30;99.90;;;;;;5071778;28;19909;-74
2022/05/20 10:23:01;;;;;;;;;;;13.30;99.90;;;;;;5056063;28;19935;-73
2022/05/20 10:25:31;;;;;;;;;;;13.30;99.90;;;;;;5056334;28;19916;-74
2022/05/20 10:27:58;;;;;;;;;;;13.30;99.90;;;;;;5056389;28;19915;-74
2022/05/20 10:33:25;;;;;;;;;;;13.20;99.90;;;;;;5056487;28;20366;-74
2022/05/20 10:35:51;;;;;;;;;;;13.30;99.90;;;;;;5055637;28;19955;-74
2022/05/20 10:38:36;;;;;;;;;;;13.30;99.90;;;;;;5056035;28;19908;-74
2022/05/20 10:41:07;;;;;;;;;;;13.30;99.90;;;;;;5056781;28;19916;-74
2022/05/20 10:49:38;;;;;;;;;;;13.20;99.90;;;;;;5086492;28;19970;-74
2022/05/20 10:52:13;;;;;;;;;;;13.20;99.90;;;;;;5092274;28;19924;-74
2022/05/20 10:54:52;;;;;;;;;;;13.10;99.90;;;;;;5093047;28;19919;-74
2022/05/20 10:57:18;;;;;;;;;;;13.10;99.90;;;;;;5093072;28;19966;-74
2022/05/20 10:59:48;;;;;;;;;;;13.00;99.90;;;;;;5092859;28;20113;-74
2022/05/20 11:02:15;;;;;;;;;;;13.00;99.90;;;;;;5091722;28;20329;-74
2022/05/20 11:04:58;;;;;;;;;;;13.10;99.90;;;;;;5093123;28;20678;-74
2022/05/20 11:07:27;;;;;;;;;;;13.00;99.90;;;;;;5093155;28;19915;-74
2022/05/20 11:10:12;;;;;;;;;;;13.00;99.90;;;;;;5092544;28;19920;-75
2022/05/20 11:13:02;;;;;;;;;;;13.00;99.90;;;;;;5093184;28;19912;-74
2022/05/20 11:15:47;;;;;;;;;;;13.10;99.90;;;;;;5092861;28;20351;-74
2022/05/20 11:18:14;;;;;;;;;;;13.10;99.90;;;;;;5093077;28;19908;-74
2022/05/20 11:20:58;;;;;;;;;;;13.00;99.90;;;;;;5091871;28;19908;-74
2022/05/20 11:23:48;;;;;;;;;;;13.10;99.90;;;;;;5092873;28;20274;-74
2022/05/20 11:26:21;;;;;;;;;;;13.10;99.90;;;;;;5090076;28;20495;-73
2022/05/20 11:29:05;;;;;;;;;;;13.20;99.90;;;;;;5093595;28;20359;-74
2022/05/20 11:31:38;;;;;;;;;;;13.10;99.90;;;;;;5093560;28;19919;-74
2022/05/20 11:34:09;;;;;;;;;;;13.20;99.90;;;;;;5094862;28;19908;-74
2022/05/20 11:36:56;;;;;;;;;;;13.20;99.90;;;;;;5094765;28;19908;-73
2022/05/20 11:39:26;;;;;;;;;;;13.20;99.90;;;;;;5093765;28;19918;-73
2022/05/20 11:42:14;;;;;;;;;;;13.20;99.90;;;;;;5093689;28;19947;-73
2022/05/20 11:44:41;;;;;;;;;;;13.20;99.90;;;;;;5092680;28;20666;-73
2022/05/20 11:47:12;;;;;;;;;;;13.30;99.90;;;;;;5092302;28;20278;-73
2022/05/20 11:49:42;;;;;;;;;;;13.30;99.90;;;;;;5091676;28;19923;-73
2022/05/20 11:52:21;;;;;;;;;;;13.30;99.90;;;;;;5091094;28;19920;-73
2022/05/20 11:54:57;;;;;;;;;;;13.30;99.90;;;;;;5092270;28;19984;-73
2022/05/20 11:57:27;;;;;;;;;;;13.30;99.90;;;;;;5092141;28;20402;-74
2022/05/20 12:00:06;;;;;;;;;;;13.30;99.90;;;;;;5091683;28;19953;-74
2022/05/20 12:02:34;;;;;;;;;;;13.40;99.90;;;;;;5091760;28;19916;-74
2022/05/20 12:05:02;;;;;;;;;;;13.40;99.90;;;;;;5092049;28;20274;-74
2022/05/20 12:07:28;;;;;;;;;;;13.40;99.90;;;;;;5091893;28;19957;-74
2022/05/20 12:09:56;;;;;;;;;;;13.40;99.90;;;;;;5092222;28;20023;-74
2022/05/20 12:12:50;;;;;;;;;;;13.40;99.90;;;;;;5092035;28;19931;-74
2022/05/20 12:15:19;;;;;;;;;;;13.30;99.90;;;;;;5091179;28;19912;-74
2022/05/20 12:17:52;;;;;;;;;;;13.30;99.90;;;;;;5091457;28;19908;-73
2022/05/20 12:26:19;;;;;;;;;;;13.40;99.90;;;;;;5091882;28;19915;-73
2022/05/20 12:28:46;;;;;;;;;;;13.40;99.90;;;;;;5091118;28;19918;-73
2022/05/20 12:31:12;;;;;;;;;;;13.40;99.90;;;;;;5091131;28;20450;-74
2022/05/20 12:33:56;;;;;;;;;;;13.30;99.90;;;;;;5091228;28;19912;-74
2022/05/20 12:36:29;;;;;;;;;;;13.30;99.90;;;;;;5091619;28;20305;-74
2022/05/20 12:39:08;;;;;;;;;;;13.30;99.90;;;;;;5091510;28;20251;-73
2022/05/20 12:41:45;;;;;;;;;;;13.20;99.90;;;;;;5090884;28;19912;-74
2022/05/20 12:44:12;;;;;;;;;;;13.20;99.90;;;;;;5091105;28;19930;-74
2022/05/20 12:46:44;;;;;;;;;;;13.20;99.90;;;;;;5091061;28;19912;-74
2022/05/20 12:49:10;;;;;;;;;;;13.20;99.90;;;;;;5091236;28;19916;-74
2022/05/20 12:51:48;;;;;;;;;;;13.20;99.90;;;;;;5090803;28;19924;-75
2022/05/20 12:54:19;;;;;;;;;;;13.20;99.90;;;;;;5090810;28;19919;-74
2022/05/20 12:56:46;;;;;;;;;;;13.20;99.90;;;;;;5091171;28;19908;-74
2022/05/20 12:59:23;;;;;;;;;;;13.10;99.90;;;;;;5090940;28;19920;-74
2022/05/20 13:01:57;;;;;;;;;;;13.00;99.90;;;;;;5090765;28;19908;-74
2022/05/20 13:04:26;;;;;;;;;;;13.00;99.90;;;;;;5091020;28;20379;-74
2022/05/20 13:06:52;;;;;;;;;;;13.00;99.90;;;;;;5090659;28;20346;-74
2022/05/20 13:09:24;;;;;;;;;;;13.00;99.90;;;;;;5090916;28;20004;-73
2022/05/20 13:11:50;;;;;;;;;;;13.00;99.90;;;;;;5090531;28;19919;-73
2022/05/20 13:14:19;;;;;;;;;;;12.90;99.90;;;;;;5090770;28;20271;-73
2022/05/20 13:16:47;;;;;;;;;;;12.90;99.90;;;;;;5089411;28;19920;-74
2022/05/20 13:19:15;;;;;;;;;;;12.90;99.90;;;;;;5090985;28;19912;-73
2022/05/20 13:21:44;;;;;;;;;;;13.00;99.90;;;;;;5090332;28;20034;-74
2022/05/20 13:24:15;;;;;;;;;;;12.90;99.90;;;;;;5090660;28;19908;-74
2022/05/20 13:26:42;;;;;;;;;;;12.90;99.90;;;;;;5090745;28;19918;-74
2022/05/20 13:29:11;;;;;;;;;;;12.90;99.90;;;;;;5090514;28;19927;-74
2022/05/20 13:31:38;;;;;;;;;;;12.90;99.90;;;;;;5090523;28;19961;-74
2022/05/20 13:34:05;;;;;;;;;;;12.90;99.90;;;;;;5071286;28;20317;-74
2022/05/20 13:36:51;;;;;;;;;;;12.90;99.90;;;;;;5069952;28;19954;-74
2022/05/20 13:39:21;;;;;;;;;;;12.90;99.90;;;;;;5070122;28;19952;-74
2022/05/20 13:41:49;;;;;;;;;;;12.90;99.90;;;;;;5070268;28;19908;-74
2022/05/20 13:44:15;;;;;;;;;;;12.90;99.90;;;;;;5072657;28;19913;-74
2022/05/20 13:49:31;;;;;;;;;;;12.90;99.90;;;;;;5074213;28;19973;-73
2022/05/20 13:52:12;;;;;;;;;;;12.90;99.90;;;;;;5106075;28;19995;-73
2022/05/20 13:54:40;;;;;;;;;;;12.90;99.90;;;;;;5074427;28;19909;-74
2022/05/20 13:57:11;;;;;;;;;;;12.90;99.90;;;;;;5074380;28;20011;-73
2022/05/20 13:59:41;;;;;;;;;;;12.90;99.90;;;;;;5073304;28;19930;-74
2022/05/20 14:02:14;;;;;;;;;;;12.90;99.90;;;;;;5106734;28;19912;-73
2022/05/20 14:04:49;;;;;;;;;;;12.90;99.90;;;;;;5074367;28;19954;-73
2022/05/20 14:07:20;;;;;;;;;;;12.90;99.90;;;;;;5074189;28;19958;-74
2022/05/20 14:09:52;;;;;;;;;;;12.90;99.90;;;;;;5073944;28;19917;-73
2022/05/20 14:12:20;;;;;;;;;;;12.90;99.90;;;;;;5073813;28;20318;-74
2022/05/20 14:14:51;;;;;;;;;;;12.90;99.90;;;;;;5073867;28;19908;-74
2022/05/20 14:17:18;;;;;;;;;;;13.00;99.90;;;;;;5074081;28;20217;-74
2022/05/20 14:19:48;;;;;;;;;;;13.00;99.90;;;;;;5073673;28;19908;-74
2022/05/20 14:22:19;;;;;;;;;;;13.00;99.90;;;;;;5073982;28;19908;-74
2022/05/20 14:24:58;;;;;;;;;;;13.00;99.90;;;;;;5073786;28;19912;-75
2022/05/20 14:27:30;;;;;;;;;;;13.00;99.90;;;;;;5073556;28;19919;-74
2022/05/20 14:30:14;;;;;;;;;;;13.00;99.90;;;;;;5073635;28;19917;-74
2022/05/20 14:32:41;;;;;;;;;;;13.00;99.90;;;;;;5073844;28;20007;-74
2022/05/20 14:35:08;;;;;;;;;;;13.00;99.90;;;;;;5073646;28;20346;-74
2022/05/20 14:37:35;;;;;;;;;;;13.00;99.90;;;;;;5073247;28;20428;-73
2022/05/20 14:40:08;;;;;;;;;;;13.00;99.90;;;;;;5073154;28;19912;-73
2022/05/20 14:42:42;;;;;;;;;;;13.00;99.90;;;;;;5073404;28;19948;-73
2022/05/20 14:45:15;;;;;;;;;;;13.00;99.90;;;;;;5073421;28;20011;-74
2022/05/20 14:47:44;;;;;;;;;;;13.00;99.90;;;;;;5073000;28;19916;-74
2022/05/20 14:50:13;;;;;;;;;;;12.90;99.90;;;;;;5072966;28;20298;-74
2022/05/20 14:52:45;;;;;;;;;;;12.90;99.90;;;;;;5073229;28;20378;-74
2022/05/20 14:55:22;;;;;;;;;;;12.90;99.90;;;;;;5072911;28;19912;-74
2022/05/20 14:58:07;;;;;;;;;;;12.90;99.90;;;;;;5072965;28;19919;-74
2022/05/20 15:00:34;;;;;;;;;;;12.90;99.90;;;;;;5075932;28;20782;-74
2022/05/20 15:03:01;;;;;;;;;;;12.90;99.90;;;;;;5093995;28;20384;-73
2022/05/20 15:05:29;;;;;;;;;;;12.80;99.90;;;;;;5093673;28;20255;-74
2022/05/20 15:08:00;;;;;;;;;;;12.80;99.90;;;;;;5093857;28;19963;-74
2022/05/20 15:10:29;;;;;;;;;;;12.80;99.90;;;;;;5093792;28;19916;-74
2022/05/20 15:12:55;;;;;;;;;;;12.80;99.90;;;;;;5093468;28;20010;-74